createdAt,value
2023-02-26T00:00:14.487Z,-1.26
2023-02-26T00:05:15.847Z,-1.18
2023-02-26T00:10:16.984Z,-1.25
2023-02-26T00:15:18.431Z,-1.24
2023-02-26T00:20:19.543Z,-1.28
2023-02-26T00:25:20.319Z,-1.34
2023-02-26T00:30:22.235Z,-1.36
2023-02-26T00:35:23.363Z,-1.33
2023-02-26T00:40:44.678Z,-1.36
2023-02-26T00:46:18.542Z,-1.40
2023-02-26T00:53:03.017Z,-1.30
2023-02-26T00:58:03.966Z,-1.34
2023-02-26T01:03:05.314Z,-1.34
2023-02-26T01:08:18.790Z,-1.19
2023-02-26T01:13:20.032Z,-1.11
2023-02-26T01:18:42.840Z,-1.16
2023-02-26T01:23:49.505Z,-1.06
2023-02-26T01:28:51.313Z,-1.06
2023-02-26T01:34:02.285Z,-1.09
2023-02-26T01:39:15.525Z,-1.14
2023-02-26T01:44:39.102Z,-1.09
2023-02-26T01:49:40.342Z,-1.06
2023-02-26T01:54:41.134Z,-1.18
2023-02-26T01:59:45.766Z,-1.25
2023-02-26T02:04:47.835Z,-1.35
2023-02-26T02:09:48.683Z,-1.33
2023-02-26T02:15:13.645Z,-1.36
2023-02-26T02:28:25.381Z,-1.32
2023-02-26T02:33:33.926Z,-1.60
2023-02-26T02:38:46.504Z,-1.65
2023-02-26T02:43:49.742Z,-1.57
2023-02-26T02:49:01.153Z,-1.60
2023-02-26T02:54:13.263Z,-1.65
2023-02-26T02:59:27.985Z,-1.67
2023-02-26T03:04:29.713Z,-1.66
2023-02-26T03:09:30.632Z,-1.76
2023-02-26T03:14:32.286Z,-1.75
2023-02-26T03:21:06.534Z,-1.99
2023-02-26T03:26:18.746Z,-2.00
2023-02-26T03:31:30.907Z,-2.01
2023-02-26T03:36:38.455Z,-2.17
2023-02-26T03:41:59.642Z,-2.14
2023-02-26T03:47:07.355Z,-2.31
2023-02-26T03:52:11.753Z,-2.29
2023-02-26T03:59:04.535Z,-2.23
2023-02-26T04:07:38.286Z,-2.31
2023-02-26T04:12:39.186Z,-2.27
2023-02-26T04:17:41.284Z,-2.24
2023-02-26T04:22:42.912Z,-2.23
2023-02-26T04:27:43.821Z,-2.19
2023-02-26T04:32:44.632Z,-2.36
2023-02-26T04:37:47.571Z,-2.18
2023-02-26T04:42:48.816Z,-2.34
2023-02-26T04:47:54.963Z,-2.21
2023-02-26T04:52:56.066Z,-2.37
2023-02-26T04:57:58.233Z,-2.31
2023-02-26T05:02:59.441Z,-2.40
2023-02-26T05:08:00.239Z,-2.47
2023-02-26T05:13:01.391Z,-2.42
2023-02-26T05:18:02.405Z,-2.27
2023-02-26T05:23:03.720Z,-2.38
2023-02-26T05:28:04.718Z,-2.34
2023-02-26T05:33:05.557Z,-2.33
2023-02-26T05:38:06.428Z,-2.35
2023-02-26T05:43:08.496Z,-2.43
2023-02-26T05:48:10.308Z,-2.55
2023-02-26T05:53:11.090Z,-2.78
2023-02-26T05:58:12.171Z,-2.71
2023-02-26T06:03:13.512Z,-2.67
2023-02-26T06:08:15.727Z,-2.63
2023-02-26T06:13:16.692Z,-2.75
2023-02-26T06:18:17.513Z,-2.86
2023-02-26T06:23:18.482Z,-2.92
2023-02-26T06:28:19.694Z,-2.92
2023-02-26T06:33:20.562Z,-2.89
2023-02-26T06:38:21.296Z,-2.87
2023-02-26T06:43:22.831Z,-2.41
2023-02-26T06:48:24.010Z,-2.30
2023-02-26T06:53:24.819Z,-2.19
2023-02-26T06:58:25.681Z,-2.16
2023-02-26T07:03:26.469Z,-2.12
2023-02-26T07:08:27.194Z,-2.06
2023-02-26T07:13:28.054Z,-1.76
2023-02-26T07:18:32.134Z,-1.79
2023-02-26T07:23:32.937Z,-1.69
2023-02-26T07:28:33.950Z,-1.62
2023-02-26T07:33:34.709Z,-1.52
2023-02-26T07:38:35.536Z,-1.47
2023-02-26T07:43:36.407Z,-1.58
2023-02-26T07:48:40.543Z,-1.76
2023-02-26T07:53:41.404Z,-1.77
2023-02-26T07:58:42.220Z,-1.73
2023-02-26T08:03:42.972Z,-1.52
2023-02-26T08:08:43.792Z,-1.31
2023-02-26T08:13:44.618Z,-1.17
2023-02-26T08:18:45.436Z,-1.07
2023-02-26T08:23:46.195Z,-1.25
2023-02-26T08:28:47.539Z,-1.02
2023-02-26T08:33:48.274Z,-1.01
2023-02-26T08:38:49.051Z,-0.68
2023-02-26T08:43:50.550Z,-0.48
2023-02-26T08:48:52.660Z,-0.43
2023-02-26T08:53:53.464Z,0.08
2023-02-26T08:58:54.257Z,0.28
2023-02-26T09:03:54.992Z,-0.46
2023-02-26T09:08:56.034Z,-0.54
2023-02-26T09:13:58.260Z,-0.58
2023-02-26T09:18:58.984Z,-0.47
2023-02-26T09:23:59.754Z,-0.54
2023-02-26T09:29:00.546Z,-0.66
2023-02-26T09:34:01.413Z,-1.08
2023-02-26T09:39:02.645Z,-1.10
2023-02-26T09:44:20.663Z,-1.11
2023-02-26T09:50:31.472Z,-0.69
2023-02-26T09:55:44.599Z,0.05
2023-02-26T10:01:12.964Z,-0.13
2023-02-26T10:06:28.037Z,-0.31
2023-02-26T10:11:40.302Z,-0.20
2023-02-26T10:16:48.978Z,0.67
2023-02-26T10:24:39.490Z,0.68
2023-02-26T10:29:53.230Z,0.19
2023-02-26T10:34:57.127Z,-0.26
2023-02-26T10:41:50.720Z,0.08
2023-02-26T10:47:48.841Z,0.21
2023-02-26T10:52:51.288Z,0.21
2023-02-26T10:58:54.150Z,0.18
2023-02-26T11:04:02.442Z,0.20
2023-02-26T11:09:13.147Z,-0.03
2023-02-26T11:14:14.994Z,-0.03
2023-02-26T11:19:16.865Z,0.04
2023-02-26T11:24:39.715Z,-0.05
2023-02-26T11:29:45.709Z,0.08
2023-02-26T11:34:49.571Z,0.29
2023-02-26T11:39:57.211Z,0.34
2023-02-26T11:44:58.161Z,0.26
2023-02-26T11:50:10.971Z,0.27
2023-02-26T11:55:28.385Z,0.16
2023-02-26T12:00:35.058Z,0.36
2023-02-26T12:05:36.015Z,0.49
2023-02-26T12:10:57.452Z,0.98
2023-02-26T12:16:14.599Z,1.03
2023-02-26T12:21:58.635Z,1.91
2023-02-26T12:27:14.767Z,1.77
2023-02-26T12:32:44.159Z,1.92
2023-02-26T12:38:05.195Z,1.72
2023-02-26T12:43:26.346Z,2.49
2023-02-26T12:51:53.740Z,2.78
2023-02-26T13:00:35.068Z,1.95
2023-02-26T13:06:15.608Z,1.38
2023-02-26T13:18:28.057Z,1.59
2023-02-26T13:23:42.268Z,1.25
2023-02-26T13:29:08.920Z,1.23
2023-02-26T13:34:23.566Z,1.28
2023-02-26T13:39:35.815Z,0.88
2023-02-26T13:45:30.466Z,1.09
2023-02-26T13:56:41.155Z,0.76
2023-02-26T14:03:30.162Z,0.80
2023-02-26T14:08:44.734Z,0.64
2023-02-26T14:14:16.724Z,0.70
2023-02-26T14:19:31.496Z,0.68
2023-02-26T14:24:36.981Z,0.90
2023-02-26T14:29:57.522Z,1.16
2023-02-26T14:35:05.389Z,1.18
2023-02-26T14:40:19.942Z,0.94
2023-02-26T14:45:38.628Z,0.90
2023-02-26T14:51:03.534Z,1.31
2023-02-26T14:56:44.808Z,1.51
2023-02-26T15:02:17.244Z,1.38
2023-02-26T15:08:10.447Z,1.37
2023-02-26T15:13:37.130Z,1.69
2023-02-26T15:21:48.538Z,1.95
2023-02-26T15:26:53.899Z,1.31
2023-02-26T15:32:02.485Z,0.73
2023-02-26T15:37:03.318Z,0.60
2023-02-26T15:42:04.639Z,0.83
2023-02-26T15:47:05.795Z,0.68
2023-02-26T15:52:11.840Z,0.44
2023-02-26T15:57:15.427Z,0.47
2023-02-26T16:02:20.742Z,0.40
2023-02-26T16:07:22.205Z,0.44
2023-02-26T16:12:48.307Z,0.45
2023-02-26T16:17:53.817Z,0.24
2023-02-26T16:23:02.069Z,0.29
2023-02-26T16:28:06.880Z,0.21
2023-02-26T16:33:17.391Z,-0.04
2023-02-26T16:38:27.631Z,-0.04
2023-02-26T16:43:56.070Z,0.08
2023-02-26T16:49:18.296Z,0.00
2023-02-26T16:54:30.427Z,-0.03
2023-02-26T16:59:34.014Z,-0.05
2023-02-26T17:04:36.137Z,-0.14
2023-02-26T17:09:40.032Z,-0.16
2023-02-26T17:14:43.820Z,-0.29
2023-02-26T17:19:44.594Z,-0.22
2023-02-26T17:24:47.738Z,-0.28
2023-02-26T17:29:50.762Z,-0.27
2023-02-26T17:34:52.590Z,-0.58
2023-02-26T17:39:53.437Z,-0.52
2023-02-26T17:44:56.016Z,-0.59
2023-02-26T17:49:56.870Z,-0.66
2023-02-26T17:54:57.694Z,-0.63
2023-02-26T17:59:59.603Z,-0.63
2023-02-26T18:05:01.095Z,-0.54
2023-02-26T18:10:02.973Z,-0.50
2023-02-26T18:15:05.411Z,-0.53
2023-02-26T18:20:12.456Z,-0.65
2023-02-26T18:25:14.400Z,-0.74
2023-02-26T18:30:27.552Z,-0.77
2023-02-26T18:35:30.232Z,-0.93
2023-02-26T18:40:31.032Z,-0.86
2023-02-26T18:45:31.892Z,-0.95
2023-02-26T18:50:33.127Z,-0.85
2023-02-26T18:55:36.411Z,-0.88
2023-02-26T19:00:38.008Z,-0.87
2023-02-26T19:05:38.788Z,-0.99
2023-02-26T19:10:39.613Z,-1.09
2023-02-26T19:15:40.415Z,-1.25
2023-02-26T19:20:41.484Z,-1.18
2023-02-26T19:25:42.968Z,-1.17
2023-02-26T19:30:44.207Z,-1.17
2023-02-26T19:35:44.984Z,-1.13
2023-02-26T19:40:45.814Z,-1.10
2023-02-26T19:45:46.762Z,-1.16
2023-02-26T19:50:51.626Z,-1.20
2023-02-26T19:55:52.408Z,-1.17
2023-02-26T20:00:53.231Z,-1.11
2023-02-26T20:05:55.247Z,-1.19
2023-02-26T20:10:57.617Z,-1.15
2023-02-26T20:16:00.417Z,-1.27
2023-02-26T20:21:04.780Z,-1.24
2023-02-26T20:26:09.113Z,-1.33
2023-02-26T20:31:10.925Z,-1.18
2023-02-26T20:36:11.997Z,-1.27
2023-02-26T20:41:15.688Z,-1.14
2023-02-26T20:46:16.757Z,-1.14
2023-02-26T20:51:17.580Z,-1.24
2023-02-26T20:56:18.397Z,-1.25
2023-02-26T21:01:19.155Z,-1.25
2023-02-26T21:06:19.970Z,-1.14
2023-02-26T21:11:20.734Z,-1.28
2023-02-26T21:16:21.711Z,-1.32
2023-02-26T21:21:23.221Z,-1.41
2023-02-26T21:26:24.123Z,-1.42
2023-02-26T21:31:25.005Z,-1.18
2023-02-26T21:36:25.960Z,-1.33
2023-02-26T21:41:27.061Z,-1.54
2023-02-26T21:46:28.132Z,-1.51
2023-02-26T21:51:29.156Z,-1.65
2023-02-26T21:56:30.327Z,-1.64
2023-02-26T22:01:31.156Z,-1.73
2023-02-26T22:06:32.130Z,-1.63
2023-02-26T22:11:32.952Z,-1.62
2023-02-26T22:16:33.936Z,-1.79
2023-02-26T22:21:34.788Z,-1.85
2023-02-26T22:26:35.820Z,-1.78
2023-02-26T22:31:36.684Z,-1.70
2023-02-26T22:36:37.688Z,-1.87
2023-02-26T22:41:38.411Z,-1.92
2023-02-26T22:46:39.288Z,-2.01
2023-02-26T22:51:40.043Z,-2.03
2023-02-26T22:56:40.835Z,-1.93
2023-02-26T23:01:41.912Z,-1.99
2023-02-26T23:06:42.920Z,-1.89
2023-02-26T23:11:43.697Z,-1.93
2023-02-26T23:16:45.130Z,-2.04
2023-02-26T23:21:45.934Z,-2.02
2023-02-26T23:26:46.910Z,-2.13
2023-02-26T23:31:47.828Z,-2.17
2023-02-26T23:36:49.082Z,-2.21
2023-02-26T23:41:49.805Z,-2.29
2023-02-26T23:46:50.904Z,-2.35
2023-02-26T23:51:51.647Z,-2.36
2023-02-26T23:56:52.449Z,-2.33
